Disclaimer

Please do not use the information listed here in-flight or in-navigation, as they are not provided to us by the airports but are provided by volunteers, so they might be outdated.

Search


Regions


Airport information page

No radio frequency information is available.

Airport informations:
Latitude: 51° 45' 02.21" N
Longitude: 036° 17' 44.11" E
Elevation: 686 feet - 209 meters
Operating hours: Remarks
Operating agency: Civil government, landing fees and diplomatic clearance may be required
Timezone: UTC+3(+4DT) - Last Sunday in March to last Sunday in October
Fuel: N/A

Runway information:
12/30 - 8202 x 131 feet< - >2500 x 40 meters

Recent METARs:
UUOK 151030Z 11006MPS CAVOK 02/M10 Q1033 R12/CLRD65 NOSIG RMK QFE756/1008
UUOK 151100Z 11005MPS CAVOK 02/M11 Q1033 R12/CLRD65 NOSIG RMK QFE756/1008
UUOK 151130Z 10004MPS CAVOK 02/M12 Q1033 R12/CLRD65 NOSIG RMK QFE756/1009

Airport on the map: